Time;durP1;ratioP1;P1;durP2;ratioP2;P2;SDS_P1;SDS_P2;PMS_P1;PMS_P2;Temp;Humidity;BMP_temperature;BMP_pressure;BME280_temperature;BME280_humidity;BME280_pressure;Samples;Min_cycle;Max_cycle;Signal;HPM_P1;HPM_P2
2022/05/24 00:05:50;;;;;;;9.43;3.92;;;;;;;14.43;53.44;99237.22;30981533;28;96967;-74
2022/05/24 00:20:52;;;;;;;3.97;2.65;;;;;;;14.26;53.98;99209.38;30980428;28;96709;-74
2022/05/24 00:35:54;;;;;;;5.93;2.70;;;;;;;14.20;54.52;99208.34;30979260;28;96724;-74
2022/05/24 00:50:56;;;;;;;5.63;3.03;;;;;;;14.16;54.63;99165.16;30980047;28;96703;-74
2022/05/24 01:05:56;;;;;;;7.20;3.23;;;;;;;14.03;55.67;99146.50;30977012;28;97404;-74
2022/05/24 01:21:03;;;;;;;6.30;3.40;;;;;;;13.96;55.87;99105.59;30995098;28;96756;-74
2022/05/24 01:36:10;;;;;;;6.67;4.37;;;;;;;13.95;56.08;99069.13;30996470;28;97317;-74
2022/05/24 01:51:13;;;;;;;6.73;4.10;;;;;;;13.92;56.32;99067.72;30994896;28;96841;-74
2022/05/24 02:06:24;;;;;;;6.87;4.03;;;;;;;13.94;56.81;99113.00;30993092;28;96682;-74
2022/05/24 02:21:25;;;;;;;6.23;3.83;;;;;;;13.82;57.53;99086.94;30990231;28;97648;-73
2022/05/24 02:36:25;;;;;;;8.75;4.30;;;;;;;13.75;57.72;99090.69;30990427;28;97326;-74
2022/05/24 02:51:26;;;;;;;6.25;4.25;;;;;;;13.66;58.17;99103.53;30988764;28;96869;-74
2022/05/24 03:06:27;;;;;;;6.28;4.63;;;;;;;13.66;58.40;99071.44;30985688;28;97052;-74
2022/05/24 03:21:27;;;;;;;7.10;4.07;;;;;;;13.66;58.79;99071.44;30984622;28;96650;-74
2022/05/24 03:36:28;;;;;;;6.47;3.95;;;;;;;13.80;58.82;99067.59;30983283;28;96732;-74
2022/05/24 03:51:29;;;;;;;7.30;4.57;;;;;;;13.83;59.17;99037.72;30982002;28;96600;-74
2022/05/24 04:06:29;;;;;;;10.05;4.68;;;;;;;14.01;58.82;99068.22;30978983;28;97506;-73
2022/05/24 04:21:30;;;;;;;7.57;4.65;;;;;;;14.16;58.88;99082.13;30975918;28;104985;-73
2022/05/24 04:36:31;;;;;;;10.98;4.55;;;;;;;14.27;58.85;99083.25;30972707;28;96634;-73
2022/05/24 04:51:33;;;;;;;8.97;4.20;;;;;;;14.50;58.23;99071.88;30975337;28;97270;-73
2022/05/24 05:06:33;;;;;;;9.27;5.88;;;;;;;14.76;57.98;99083.34;30966188;28;97186;-74
2022/05/24 05:21:36;;;;;;;9.05;6.47;;;;;;;14.99;57.38;99089.88;30969440;28;96696;-72
2022/05/24 05:36:36;;;;;;;9.83;5.00;;;;;;;15.46;56.61;99079.34;30969277;28;97387;-71
2022/05/24 05:51:36;;;;;;;7.15;4.63;;;;;;;15.90;55.74;99093.31;30967936;28;97157;-73
2022/05/24 06:06:44;;;;;;;7.63;4.72;;;;;;;16.12;55.57;99094.63;30984018;28;98306;-71
2022/05/24 06:21:45;;;;;;;7.20;4.60;;;;;;;16.73;55.51;99108.56;30985131;28;97417;-75
2022/05/24 06:36:46;;;;;;;9.20;4.43;;;;;;;17.17;55.26;99111.66;30985195;28;97572;-73
2022/05/24 06:51:46;;;;;;;8.20;4.10;;;;;;;17.93;54.33;99115.94;30979238;28;97214;-73
2022/05/24 07:06:46;;;;;;;5.25;3.85;;;;;;;18.57;53.22;99129.03;30976572;28;98297;-73
2022/05/24 07:21:47;;;;;;;6.53;3.40;;;;;;;19.50;50.95;99126.63;30978213;28;105721;-71
2022/05/24 07:36:47;;;;;;;11.40;3.90;;;;;;;20.68;49.03;99135.69;30977579;28;97661;-71
2022/05/24 07:51:47;;;;;;;6.35;3.45;;;;;;;22.93;45.16;99135.31;30977394;28;113156;-72
2022/05/24 08:06:48;;;;;;;6.10;3.10;;;;;;;23.62;43.61;99120.00;30977604;28;96792;-72
2022/05/24 08:21:48;;;;;;;11.37;6.30;;;;;;;24.08;42.79;99128.91;30974249;28;96718;-73
2022/05/24 08:36:48;;;;;;;4.33;2.80;;;;;;;26.16;39.11;99141.28;30967416;28;110372;-76
2022/05/24 08:51:58;;;;;;;;;;;;;;;25.93;39.33;99142.19;30972532;28;97166;-71
2022/05/24 09:07:29;;;;;;;4.43;2.20;;;;;;;26.65;37.91;99130.81;30850170;28;97269;-75
2022/05/24 09:22:35;;;;;;;4.10;2.30;;;;;;;26.91;37.56;99138.53;30846724;28;96720;-73
2022/05/24 09:37:36;;;;;;;7.93;1.83;;;;;;;25.25;40.94;99149.72;30859415;28;96761;-74
2022/05/24 09:52:37;;;;;;;7.23;1.80;;;;;;;26.55;38.82;99141.94;30868521;28;97152;-74
2022/05/24 10:07:39;;;;;;;4.88;2.63;;;;;;;27.30;37.02;99163.69;30924315;28;97275;-72
2022/05/24 10:22:52;;;;;;;5.37;1.90;;;;;;;26.41;38.81;99171.97;30986559;28;97336;-73
2022/05/24 10:53:45;;;;;;;6.43;2.07;;;;;;;28.74;34.82;99175.84;30969472;28;97757;-72
2022/05/24 11:09:00;;;;;;;3.03;1.90;;;;;;;29.17;33.78;99172.41;30983037;28;97156;-71
2022/05/24 11:24:23;;;;;;;5.60;1.57;;;;;;;28.60;34.01;99167.72;30980972;28;96868;-71
2022/05/24 11:39:26;;;;;;;7.50;1.60;;;;;;;28.61;33.75;99161.91;30967583;28;97777;-69
2022/05/24 11:54:29;;;;;;;8.47;1.87;;;;;;;28.23;34.99;99162.38;30976217;28;97100;-69
2022/05/24 12:09:54;;;;;;;4.63;1.60;;;;;;;26.74;37.51;99171.94;30977508;28;97280;-74
2022/05/24 12:24:57;;;;;;;5.17;1.70;;;;;;;26.17;38.45;99177.56;30974468;28;97412;-73
2022/05/24 12:40:19;;;;;;;3.83;2.40;;;;;;;27.48;35.70;99168.22;30974734;28;96700;-69
2022/05/24 13:10:41;;;;;;;3.80;1.80;;;;;;;27.46;34.20;99155.97;30974401;28;97012;-72
2022/05/24 13:25:55;;;;;;;6.05;2.40;;;;;;;27.38;35.46;99159.44;30991864;28;96620;-81
2022/05/24 13:40:58;;;;;;;5.67;2.20;;;;;;;26.46;37.43;99180.06;30989459;28;97202;-74
2022/05/24 13:56:07;;;;;;;7.57;2.30;;;;;;;25.42;39.30;99196.38;30988705;28;97056;-73
2022/05/24 14:11:13;;;;;;;8.07;2.10;;;;;;;25.60;40.80;99213.88;30986656;28;97569;-74
2022/05/24 14:26:13;;;;;;;3.07;1.77;;;;;;;24.89;40.97;99213.63;30976808;28;97104;-74
2022/05/24 14:41:17;;;;;;;4.85;2.20;;;;;;;24.23;42.45;99243.06;30985323;28;110668;-78
2022/05/24 14:56:17;;;;;;;6.47;2.20;;;;;;;23.87;44.89;99270.50;30982833;28;96757;-74
2022/05/24 15:26:42;;;;;;;5.77;2.03;;;;;;;22.55;51.90;99350.09;31036656;28;97605;-74
2022/05/24 15:41:42;;;;;;;3.63;1.27;;;;;;;21.52;53.41;99362.50;31026391;28;98481;-72
2022/05/24 15:56:43;;;;;;;5.80;1.42;;;;;;;20.79;55.06;99361.19;31031608;28;107951;-77
2022/05/24 16:11:50;;;;;;;3.03;1.30;;;;;;;20.46;56.46;99368.41;31024027;28;96862;-74
2022/05/24 16:26:50;;;;;;;2.63;1.60;;;;;;;20.53;57.12;99374.47;31004033;28;97382;-69
2022/05/24 16:41:51;;;;;;;2.67;1.63;;;;;;;20.43;58.29;99404.09;31009790;28;98038;-73
2022/05/24 17:12:11;;;;;;;9.50;2.80;;;;;;;20.16;59.87;99418.44;30971616;28;97060;-76
2022/05/24 17:27:11;;;;;;;3.95;1.73;;;;;;;20.01;61.53;99423.63;30970243;28;96979;-76
2022/05/24 17:42:13;;;;;;;3.33;1.60;;;;;;;19.67;62.21;99446.16;30969971;28;96937;-74
2022/05/24 17:57:13;;;;;;;;;;;;;;;19.30;64.78;99484.50;30979001;28;96636;-74
2022/05/24 18:12:13;;;;;;;4.18;1.75;;;;;;;18.87;65.15;99504.75;30985117;28;97387;-71
2022/05/24 18:42:38;;;;;;;8.63;2.47;;;;;;;18.35;68.71;99533.41;30984271;28;97115;-78
2022/05/24 18:57:40;;;;;;;5.60;2.50;;;;;;;18.12;71.62;99542.34;30982541;28;97146;-72
2022/05/24 19:12:41;;;;;;;4.67;2.70;;;;;;;17.77;72.54;99564.72;30980716;28;96910;-71
2022/05/24 19:27:41;;;;;;;6.95;3.83;;;;;;;17.62;73.97;99569.72;30982059;28;97849;-73
2022/05/24 19:42:42;;;;;;;5.28;3.50;;;;;;;17.45;74.60;99591.13;30979358;28;97376;-72
2022/05/24 19:57:42;;;;;;;6.75;4.10;;;;;;;17.32;75.22;99614.50;30969561;28;97148;-73
2022/05/24 20:12:43;;;;;;;7.47;3.70;;;;;;;17.16;75.96;99609.75;30967036;28;97029;-75
2022/05/24 20:27:43;;;;;;;7.03;4.03;;;;;;;17.12;76.17;99625.53;30968748;28;97156;-74
2022/05/24 20:42:44;;;;;;;9.77;4.72;;;;;;;16.98;76.64;99632.94;31029301;28;99631;-75
2022/05/24 20:57:44;;;;;;;10.88;4.03;;;;;;;16.74;77.26;99642.72;31035561;28;110662;-71
2022/05/24 21:12:45;;;;;;;9.80;4.53;;;;;;;16.35;77.93;99650.16;30926940;28;98652;-72
2022/05/24 21:28:05;;;;;;;8.30;5.30;;;;;;;16.24;78.52;99674.00;30979623;28;97474;-72
2022/05/24 21:43:06;;;;;;;8.80;4.90;;;;;;;15.98;79.66;99693.03;30994997;28;96720;-72
2022/05/24 21:58:07;;;;;;;10.57;7.03;;;;;;;15.92;80.61;99710.03;30994638;28;96754;-72
2022/05/24 22:13:09;;;;;;;8.83;6.73;;;;;;;15.65;81.46;99704.78;30992497;28;97209;-73
2022/05/24 22:28:10;;;;;;;8.77;6.87;;;;;;;15.83;81.99;99707.59;30989819;28;97495;-72
2022/05/24 22:43:10;;;;;;;8.68;7.30;;;;;;;15.96;80.81;99730.03;30993214;28;96728;-72
2022/05/24 22:58:10;;;;;;;11.43;6.78;;;;;;;15.89;81.13;99725.53;30992058;28;97210;-73
2022/05/24 23:13:11;;;;;;;9.80;6.07;;;;;;;15.85;80.49;99737.75;30985863;28;97451;-72
2022/05/24 23:28:12;;;;;;;12.00;5.93;;;;;;;15.93;80.03;99744.72;30985123;28;96644;-72
2022/05/24 23:43:17;;;;;;;6.80;4.73;;;;;;;16.06;77.92;99741.97;30983767;28;96761;-75
2022/05/24 23:58:18;;;;;;;5.33;3.63;;;;;;;16.23;75.17;99734.19;30981873;28;97359;-73
